• Join FlightAware (Why Join?)
  • Login
  • US Flag 
12:34PM EDT


 

Airport Tracker/Info


-or-


 

Live Flight TrackerFlight Track Log ✈ SLI677 ✈ 24-Apr-2013 ✈ MGGT / GUA - MMMX / MEX

Flight Track Log - Related Links

Times and Time Zones

All times are in EDT time to prevent confusion due to time zone crossing. See the SLI677 flight status page for this flight to view local times or setup timezone preferences in your user account.

Time Position Orientation Groundspeed Altitude Reporting Facility
EDT Latitude Longitude Course Direction KTS MPH feet Rate Location/Type
08:12AM 14.6745 -90.6790 302° West  Level Estimated
08:13AM 14.7201 -90.7549 302° West  Level Estimated
08:14AM 14.7656 -90.8307 302° West  Level Estimated
08:15AM 14.8112 -90.9066 302° West  Level Estimated
08:16AM 14.8567 -90.9825 302° West  Level Estimated
08:17AM 14.9021 -91.0585 302° West  Level Estimated
08:18AM 14.9476 -91.1345 302° West  Level Estimated
08:19AM 14.9930 -91.2105 302° West  Level Estimated
08:20AM 15.0384 -91.2865 302° West  Level Estimated
08:21AM 15.0838 -91.3626 302° West  Level Estimated
08:22AM 15.1292 -91.4387 302° West  Level Estimated
08:23AM 15.1745 -91.5149 302° West  Level Estimated
08:24AM 15.2198 -91.5910 302° West  Level Estimated
08:25AM 15.2651 -91.6673 302° West  Level Estimated
08:26AM 15.3103 -91.7435 302° West  Level Estimated
08:27AM 15.3555 -91.8198 302° West  Level Estimated
08:28AM 15.4007 -91.8961 302° West  Level Estimated
08:29AM 15.4459 -91.9724 302° West  Level Estimated
08:30AM 15.4911 -92.0488 302° West  Level Estimated
08:31AM 15.5362 -92.1252 302° West  Level Estimated
08:32AM 15.5813 -92.2017 301° West  Level Estimated
08:33AM 15.6264 -92.2781 301° West  Level Estimated
08:34AM 15.6714 -92.3546 301° West  Level Estimated
08:35AM 15.7164 -92.4312 301° West  Level Estimated
08:36AM 15.7614 -92.5078 301° West  Level Estimated
08:37AM 15.8064 -92.5844 301° West  Level Estimated
08:38AM 15.8513 -92.6610 301° West  Level Estimated
08:39AM 15.8962 -92.7377 301° West  Level Estimated
08:40AM 15.9411 -92.8144 301° West  Level Estimated
08:41AM 15.9859 -92.8912 301° West  Level Estimated
08:42AM 16.0308 -92.9679 301° West  Level Estimated
08:43AM 16.0756 -93.0448 301° West  Level Estimated
08:44AM 16.1203 -93.1216 301° West  Level Estimated
08:45AM 16.1651 -93.1985 301° West  Level Estimated
08:46AM 16.2098 -93.2754 301° West  Level Estimated
08:47AM 16.2545 -93.3524 301° West  Level Estimated
08:48AM 16.2992 -93.4294 301° West  Level Estimated
08:49AM 16.3438 -93.5064 301° West  Level Estimated
08:50AM 16.3884 -93.5835 301° West  Level Estimated
08:51AM 16.4330 -93.6606 301° West  Level Estimated
08:52AM 16.4775 -93.7377 301° West  Level Estimated
08:53AM 16.5220 -93.8149 301° West  Level Estimated
08:54AM 16.5665 -93.8921 301° West  Level Estimated
08:55AM 16.6110 -93.9693 301° West  Level Estimated
08:56AM 16.6554 -94.0466 301° West  Level Estimated
08:57AM 16.6998 -94.1239 301° West  Level Estimated
08:58AM 16.7442 -94.2012 301° West  Level Estimated
08:59AM 16.7886 -94.2786 301° West  Level Estimated
09:00AM 16.8329 -94.3560 301° West  Level Estimated
09:01AM 16.8772 -94.4335 301° West  Level Estimated
09:02AM 16.9214 -94.5110 301° West  Level Estimated
09:03AM 16.9657 -94.5885 301° West  Level Estimated
09:04AM 17.0099 -94.6661 301° West  Level Estimated
09:05AM 17.0540 -94.7437 301° West  Level Estimated
09:06AM 17.0982 -94.8213 301° West  Level Estimated
09:07AM 17.1423 -94.8990 301° West  Level Estimated
09:08AM 17.1864 -94.9767 301° West  Level Estimated
09:09AM 17.2305 -95.0544 301° West  Level Estimated
09:10AM 17.2745 -95.1322 301° West  Level Estimated
09:11AM 17.3185 -95.2100 301° West  Level Estimated
09:12AM 17.3625 -95.2879 301° West  Level Estimated
09:13AM 17.4064 -95.3658 301° West  Level Estimated
09:14AM 17.4503 -95.4437 301° West  Level Estimated
09:15AM 17.4942 -95.5217 301° West  Level Estimated
09:16AM 17.5380 -95.5997 301° West  Level Estimated
09:17AM 17.5818 -95.6778 301° West  Level Estimated
09:18AM 17.6256 -95.7559 300° West  Level Estimated
09:19AM 17.6694 -95.8340 300° West  Level Estimated
09:20AM 17.7131 -95.9121 300° West  Level Estimated
09:21AM 17.7568 -95.9903 300° West  Level Estimated
09:22AM 17.8004 -96.0686 300° West  Level Estimated
09:23AM 17.8441 -96.1469 300° West  Level Estimated
09:24AM 17.8877 -96.2252 300° West  Level Estimated
09:25AM 17.9312 -96.3035 300° West  Level Estimated
09:26AM 17.9748 -96.3819 300° West  Level Estimated
09:27AM 18.0183 -96.4603 300° West  Level Estimated
09:28AM 18.0618 -96.5388 300° West  Level Estimated
09:29AM 18.1052 -96.6173 300° West  Level Estimated
09:30AM 18.1486 -96.6959 300° West  Level Estimated
09:31AM 18.1920 -96.7744 300° West  Level Estimated
09:32AM 18.2353 -96.8531 300° West  Level Estimated
09:33AM 18.2786 -96.9317 300° West  Level Estimated
09:34AM 18.3219 -97.0104 300° West  Level Estimated
09:35AM 18.3652 -97.0892 300° West  Level Estimated
09:36AM 18.4084 -97.1679 300° West  Level Estimated
09:37AM 18.4516 -97.2468 300° West  Level Estimated
09:38AM 18.4947 -97.3256 300° West  Level Estimated
09:39AM 18.5378 -97.4045 300° West  Level Estimated
09:40AM 18.5809 -97.4835 300° West  Level Estimated
09:41AM 18.6240 -97.5624 300° West  Level Estimated
09:42AM 18.6670 -97.6415 300° West  Level Estimated
09:43AM 18.7100 -97.7205 300° West  Level Estimated
09:44AM 18.7529 -97.7996 300° West  Level Estimated
09:45AM 18.7959 -97.8788 300° West  Level Estimated
09:46AM 18.8388 -97.9579 300° West  Level Estimated
09:47AM 18.8816 -98.0372 300° West  Level Estimated
09:48AM 18.9244 -98.1164 300° West  Level Estimated